createdAt,value
2022-10-31T00:02:09.381Z,10.06
2022-10-31T00:04:40.304Z,10.02
2022-10-31T00:07:10.807Z,9.98
2022-10-31T00:09:41.275Z,9.94
2022-10-31T00:12:11.913Z,9.92
2022-10-31T00:14:42.742Z,9.90
2022-10-31T00:17:13.415Z,9.87
2022-10-31T00:19:44.259Z,9.85
2022-10-31T00:22:15.174Z,9.83
2022-10-31T00:24:45.733Z,9.83
2022-10-31T00:27:16.213Z,9.82
2022-10-31T00:29:47.092Z,9.82
2022-10-31T00:32:17.741Z,9.83
2022-10-31T00:34:48.380Z,9.86
2022-10-31T00:37:19.099Z,9.89
2022-10-31T00:39:50.750Z,9.88
2022-10-31T00:42:21.265Z,9.86
2022-10-31T00:44:51.875Z,9.84
2022-10-31T00:47:24.061Z,9.83
2022-10-31T00:49:54.536Z,9.82
2022-10-31T00:52:25.075Z,9.83
2022-10-31T00:54:55.596Z,9.82
2022-10-31T00:57:26.203Z,9.81
2022-10-31T00:59:56.858Z,9.82
2022-10-31T01:02:27.670Z,9.82
2022-10-31T01:04:58.579Z,9.83
2022-10-31T01:07:29.051Z,9.82
2022-10-31T01:09:59.713Z,9.80
2022-10-31T01:12:30.936Z,9.79
2022-10-31T01:15:01.579Z,9.78
2022-10-31T01:17:32.075Z,9.77
2022-10-31T01:20:02.860Z,9.74
2022-10-31T01:22:33.456Z,9.70
2022-10-31T01:25:05.061Z,9.68
2022-10-31T01:27:35.617Z,9.64
2022-10-31T01:30:07.953Z,9.61
2022-10-31T01:32:38.498Z,9.57
2022-10-31T01:35:09.264Z,9.52
2022-10-31T01:37:39.760Z,9.46
2022-10-31T01:40:11.935Z,9.42
2022-10-31T01:42:42.519Z,9.38
2022-10-31T01:45:14.337Z,9.37
2022-10-31T01:47:47.233Z,9.37
2022-10-31T01:50:30.577Z,9.37
2022-10-31T01:53:02.219Z,9.37
2022-10-31T01:55:35.206Z,9.35
2022-10-31T01:58:08.559Z,9.36
2022-10-31T02:00:39.821Z,9.38
2022-10-31T02:03:10.326Z,9.39
2022-10-31T02:05:41.116Z,9.37
2022-10-31T02:08:14.932Z,9.35
2022-10-31T02:10:46.192Z,9.35
2022-10-31T02:13:17.770Z,9.35
2022-10-31T02:15:53.660Z,9.35
2022-10-31T02:18:25.174Z,9.35
2022-10-31T02:21:01.127Z,9.31
2022-10-31T02:23:52.041Z,9.27
2022-10-31T02:26:45.657Z,9.27
2022-10-31T02:29:29.591Z,9.26
2022-10-31T02:32:04.951Z,9.23
2022-10-31T02:34:38.288Z,9.20
2022-10-31T02:37:13.789Z,9.14
2022-10-31T02:39:49.701Z,9.07
2022-10-31T02:44:00.266Z,9.04
2022-10-31T02:46:34.699Z,8.95
2022-10-31T02:49:08.916Z,8.89
2022-10-31T02:51:40.892Z,8.84
2022-10-31T02:54:19.969Z,8.80
2022-10-31T02:56:55.195Z,8.74
2022-10-31T02:59:25.944Z,8.69
2022-10-31T03:02:03.087Z,8.66
2022-10-31T03:04:50.549Z,8.63
2022-10-31T03:07:26.143Z,8.62
2022-10-31T03:10:02.491Z,8.61
2022-10-31T03:12:43.148Z,8.60
2022-10-31T03:15:21.663Z,8.61
2022-10-31T03:17:58.920Z,8.60
2022-10-31T03:20:32.309Z,8.61
2022-10-31T03:23:03.273Z,8.62
2022-10-31T03:25:35.269Z,8.62
2022-10-31T03:28:07.475Z,8.63
2022-10-31T03:30:39.619Z,8.64
2022-10-31T03:33:12.695Z,8.65
2022-10-31T03:35:45.159Z,8.66
2022-10-31T03:38:17.020Z,8.66
2022-10-31T03:40:49.026Z,8.66
2022-10-31T03:45:53.689Z,8.66
2022-10-31T03:48:24.726Z,8.65
2022-10-31T03:51:01.187Z,8.64
2022-10-31T03:53:36.091Z,8.63
2022-10-31T03:56:09.931Z,8.63
2022-10-31T03:58:43.253Z,8.63
2022-10-31T04:01:16.600Z,8.66
2022-10-31T04:03:47.936Z,8.65
2022-10-31T04:06:20.900Z,8.65
2022-10-31T04:08:53.823Z,8.64
2022-10-31T04:11:27.101Z,8.60
2022-10-31T04:14:37.609Z,8.59
2022-10-31T04:17:11.207Z,8.59
2022-10-31T04:19:43.529Z,8.59
2022-10-31T04:22:14.447Z,8.58
2022-10-31T04:24:44.966Z,8.55
2022-10-31T04:27:18.187Z,8.51
2022-10-31T04:29:50.807Z,8.46
2022-10-31T04:32:21.857Z,8.42
2022-10-31T04:34:52.731Z,8.44
2022-10-31T04:37:23.391Z,8.40
2022-10-31T04:39:54.140Z,8.37
2022-10-31T04:42:45.073Z,8.33
2022-10-31T04:45:18.516Z,8.30
2022-10-31T04:47:52.668Z,8.27
2022-10-31T04:50:23.351Z,8.26
2022-10-31T04:52:54.643Z,8.27
2022-10-31T04:55:28.706Z,8.28
2022-10-31T04:58:19.413Z,8.28
2022-10-31T05:00:49.915Z,8.30
2022-10-31T05:03:21.113Z,8.32
2022-10-31T05:05:51.757Z,8.35
2022-10-31T05:08:22.227Z,8.36
2022-10-31T05:10:54.326Z,8.36
2022-10-31T05:13:25.495Z,8.37
2022-10-31T05:16:21.825Z,8.36
2022-10-31T05:19:11.306Z,8.36
2022-10-31T05:22:00.644Z,8.37
2022-10-31T05:24:31.978Z,8.38
2022-10-31T05:27:02.771Z,8.37
2022-10-31T05:29:34.496Z,8.37
2022-10-31T05:32:05.378Z,8.35
2022-10-31T05:34:55.925Z,8.32
2022-10-31T05:37:49.603Z,8.29
2022-10-31T05:40:20.932Z,8.29
2022-10-31T05:42:53.044Z,8.27
2022-10-31T05:45:26.595Z,8.24
2022-10-31T05:48:03.546Z,8.25
2022-10-31T05:50:53.248Z,8.27
2022-10-31T05:53:24.003Z,8.28
2022-10-31T05:55:54.614Z,8.31
2022-10-31T05:58:26.384Z,8.35
2022-10-31T06:01:07.089Z,8.43
2022-10-31T06:03:38.031Z,8.51
2022-10-31T06:06:12.227Z,8.59
2022-10-31T06:08:44.531Z,8.64
2022-10-31T06:11:18.589Z,8.68
2022-10-31T06:14:07.668Z,8.74
2022-10-31T06:16:56.023Z,8.85
2022-10-31T06:19:56.021Z,8.98
2022-10-31T06:22:28.567Z,9.13
2022-10-31T06:24:59.430Z,9.32
2022-10-31T06:27:36.781Z,9.56
2022-10-31T06:30:13.568Z,9.81
2022-10-31T06:32:44.231Z,10.01
2022-10-31T06:35:14.931Z,10.22
2022-10-31T06:37:52.526Z,10.45
2022-10-31T06:40:32.961Z,10.72
2022-10-31T06:43:22.324Z,11.02
2022-10-31T06:45:54.323Z,11.31
2022-10-31T06:48:27.819Z,11.60
2022-10-31T06:51:27.622Z,11.97
2022-10-31T06:53:58.268Z,12.30
2022-10-31T06:56:29.650Z,12.66
2022-10-31T06:59:00.399Z,13.00
2022-10-31T07:01:50.207Z,13.35
2022-10-31T07:04:21.336Z,13.64
2022-10-31T07:06:54.164Z,13.96
2022-10-31T07:09:25.004Z,14.33
2022-10-31T07:11:55.843Z,14.64
2022-10-31T07:14:26.735Z,14.93
2022-10-31T07:16:58.546Z,15.21
2022-10-31T07:19:35.925Z,15.51
2022-10-31T07:22:06.720Z,15.76
2022-10-31T07:24:37.502Z,16.03
2022-10-31T07:27:42.802Z,16.34
2022-10-31T07:30:15.439Z,16.56
2022-10-31T07:32:46.642Z,16.80
2022-10-31T07:35:19.349Z,17.01
2022-10-31T07:37:51.901Z,17.22
2022-10-31T07:40:23.877Z,17.47
2022-10-31T07:42:55.063Z,17.69
2022-10-31T07:45:45.423Z,17.92
2022-10-31T07:48:45.160Z,18.11
2022-10-31T07:51:34.231Z,18.29
2022-10-31T07:54:21.577Z,18.47
2022-10-31T07:56:52.798Z,18.64
2022-10-31T07:59:23.353Z,18.78
2022-10-31T08:01:54.018Z,18.92
2022-10-31T08:05:00.214Z,19.01
2022-10-31T08:08:10.751Z,19.04
2022-10-31T08:10:42.590Z,19.04
2022-10-31T08:13:15.030Z,19.13
2022-10-31T08:15:51.420Z,19.25
2022-10-31T08:18:24.757Z,19.35
2022-10-31T08:20:55.705Z,19.42
2022-10-31T08:23:27.286Z,19.55
2022-10-31T08:25:59.401Z,19.69
2022-10-31T08:28:30.147Z,19.82
2022-10-31T08:31:01.420Z,19.99
2022-10-31T08:33:54.354Z,20.19
2022-10-31T08:36:46.032Z,20.28
2022-10-31T08:39:27.505Z,20.34
2022-10-31T08:41:57.993Z,20.40
2022-10-31T08:44:28.832Z,20.51
2022-10-31T08:46:59.407Z,20.62
2022-10-31T08:49:30.249Z,20.69
2022-10-31T08:52:00.819Z,20.77
2022-10-31T08:54:35.572Z,20.89
2022-10-31T08:57:33.497Z,21.05
2022-10-31T09:00:05.488Z,21.10
2022-10-31T09:02:36.270Z,21.19
2022-10-31T09:05:08.354Z,21.25
2022-10-31T09:07:39.220Z,21.33
2022-10-31T09:10:10.553Z,21.42
2022-10-31T09:12:42.462Z,21.52
2022-10-31T09:15:32.594Z,21.63
2022-10-31T09:18:17.707Z,21.81
2022-10-31T09:20:54.995Z,21.95
2022-10-31T09:23:25.794Z,22.09
2022-10-31T09:25:57.535Z,22.20
2022-10-31T09:28:37.554Z,22.29
2022-10-31T09:31:12.040Z,22.38
2022-10-31T09:33:59.841Z,22.49
2022-10-31T09:36:50.341Z,22.63
2022-10-31T09:39:24.651Z,22.71
2022-10-31T09:42:04.239Z,22.78
2022-10-31T09:44:41.829Z,22.87
2022-10-31T09:47:20.317Z,22.95
2022-10-31T09:50:08.970Z,23.04
2022-10-31T09:52:42.047Z,23.07
2022-10-31T09:55:17.302Z,23.12
2022-10-31T09:57:49.317Z,23.24
2022-10-31T10:00:21.711Z,23.38
2022-10-31T10:02:55.677Z,23.51
2022-10-31T10:05:30.568Z,23.57
2022-10-31T10:08:09.961Z,23.66
2022-10-31T10:11:06.766Z,23.56
2022-10-31T10:14:15.978Z,23.48
2022-10-31T10:16:52.420Z,23.36
2022-10-31T10:19:34.067Z,23.28
2022-10-31T10:22:07.915Z,23.13
2022-10-31T10:24:50.658Z,22.97
2022-10-31T10:27:26.919Z,22.78
2022-10-31T10:30:00.778Z,22.66
2022-10-31T10:32:38.269Z,22.54
2022-10-31T10:36:42.412Z,22.36
2022-10-31T10:39:20.602Z,22.15
2022-10-31T10:42:11.681Z,21.98
2022-10-31T10:45:05.587Z,21.85
2022-10-31T10:47:46.348Z,21.73
2022-10-31T10:50:22.365Z,21.58
2022-10-31T10:53:09.857Z,21.50
2022-10-31T10:55:50.568Z,21.38
2022-10-31T10:58:22.966Z,21.24
2022-10-31T11:00:59.075Z,21.16
2022-10-31T11:03:33.189Z,21.12
2022-10-31T11:06:05.903Z,21.08
2022-10-31T11:08:39.325Z,21.02
2022-10-31T11:11:31.877Z,20.92
2022-10-31T11:14:13.535Z,20.86
2022-10-31T11:16:49.598Z,20.77
2022-10-31T11:19:24.855Z,20.71
2022-10-31T11:22:08.211Z,20.66
2022-10-31T11:24:44.750Z,20.60
2022-10-31T11:27:22.451Z,20.53
2022-10-31T11:29:59.815Z,20.53
2022-10-31T11:32:33.893Z,20.54
2022-10-31T11:35:11.672Z,20.53
2022-10-31T11:37:48.069Z,20.53
2022-10-31T11:40:25.325Z,20.54
2022-10-31T11:43:01.348Z,20.52
2022-10-31T11:45:37.959Z,20.51
2022-10-31T11:48:20.676Z,20.49
2022-10-31T11:50:54.884Z,20.48
2022-10-31T11:53:31.760Z,20.48
2022-10-31T11:56:14.825Z,20.47
2022-10-31T11:58:57.073Z,20.46
2022-10-31T12:01:31.156Z,20.45
2022-10-31T12:04:09.142Z,20.43
2022-10-31T12:06:43.197Z,20.40
2022-10-31T12:09:24.897Z,20.38
2022-10-31T12:12:22.560Z,20.36
2022-10-31T12:15:07.370Z,20.34
2022-10-31T12:17:45.147Z,20.33
2022-10-31T12:20:28.608Z,20.33
2022-10-31T12:23:08.649Z,20.34
2022-10-31T12:25:49.572Z,20.34
2022-10-31T12:28:46.226Z,20.34
2022-10-31T12:31:35.229Z,20.33
2022-10-31T12:34:32.540Z,20.31
2022-10-31T12:37:12.181Z,20.27
2022-10-31T12:39:54.285Z,20.27
2022-10-31T12:42:54.233Z,20.27
2022-10-31T12:45:54.288Z,20.27
2022-10-31T12:49:07.441Z,20.28
2022-10-31T12:51:48.540Z,20.28
2022-10-31T12:54:48.299Z,20.28
2022-10-31T12:57:34.429Z,20.29
2022-10-31T13:00:13.458Z,20.29
2022-10-31T13:02:52.143Z,20.28
2022-10-31T13:10:17.434Z,20.25
2022-10-31T13:12:53.803Z,20.25
2022-10-31T13:15:29.673Z,20.26
2022-10-31T13:18:06.963Z,20.26
2022-10-31T13:20:44.232Z,20.24
2022-10-31T13:23:48.936Z,20.20
2022-10-31T13:26:22.326Z,20.18
2022-10-31T13:29:02.603Z,20.16
2022-10-31T13:31:35.297Z,20.16
2022-10-31T13:34:18.954Z,20.14
2022-10-31T13:36:58.196Z,20.12
2022-10-31T13:39:41.735Z,20.10
2022-10-31T13:42:21.902Z,20.08
2022-10-31T13:44:55.495Z,20.05
2022-10-31T13:47:30.585Z,20.02
2022-10-31T13:50:22.629Z,19.99
2022-10-31T13:52:53.743Z,19.96
2022-10-31T13:55:44.161Z,19.92
2022-10-31T13:58:29.354Z,19.87
2022-10-31T14:01:19.483Z,19.83
2022-10-31T14:04:12.958Z,19.77
2022-10-31T14:06:52.545Z,19.74
2022-10-31T14:09:29.063Z,19.70
2022-10-31T14:12:04.835Z,19.66
2022-10-31T14:14:44.234Z,19.63
2022-10-31T14:17:25.180Z,19.59
2022-10-31T14:20:27.078Z,19.54
2022-10-31T14:25:37.909Z,19.45
2022-10-31T14:28:33.408Z,19.41
2022-10-31T14:31:26.211Z,19.37
2022-10-31T14:33:58.387Z,19.32
2022-10-31T14:36:45.077Z,19.26
2022-10-31T14:39:24.808Z,19.21
2022-10-31T14:42:16.384Z,19.17
2022-10-31T14:45:15.693Z,19.11
2022-10-31T14:48:03.835Z,19.06
2022-10-31T14:50:50.509Z,19.00
2022-10-31T14:53:27.588Z,18.95
2022-10-31T14:56:06.498Z,18.91
2022-10-31T14:58:42.216Z,18.84
2022-10-31T15:01:25.232Z,18.79
2022-10-31T15:04:22.403Z,18.75
2022-10-31T15:07:00.150Z,18.66
2022-10-31T15:09:34.896Z,18.53
2022-10-31T15:12:26.449Z,18.41
2022-10-31T15:14:59.550Z,18.30
2022-10-31T15:17:32.144Z,18.17
2022-10-31T15:20:05.974Z,18.04
2022-10-31T15:22:38.599Z,17.92
2022-10-31T15:25:18.720Z,17.84
2022-10-31T15:27:52.476Z,17.76
2022-10-31T15:30:27.072Z,17.70
2022-10-31T15:32:59.576Z,17.63
2022-10-31T15:35:32.802Z,17.56
2022-10-31T15:38:05.260Z,17.50
2022-10-31T15:40:38.699Z,17.43
2022-10-31T15:43:18.166Z,17.34
2022-10-31T15:45:51.018Z,17.22
2022-10-31T15:48:26.902Z,17.12
2022-10-31T15:51:01.001Z,17.02
2022-10-31T15:53:38.977Z,16.93
2022-10-31T15:56:13.614Z,16.82
2022-10-31T15:58:50.067Z,16.72
2022-10-31T16:01:27.598Z,16.62
2022-10-31T16:04:22.387Z,16.53
2022-10-31T16:07:04.033Z,16.42
2022-10-31T16:09:36.171Z,16.31
2022-10-31T16:12:19.945Z,16.21
2022-10-31T16:14:56.607Z,16.10
2022-10-31T16:17:30.245Z,16.01
2022-10-31T16:20:06.021Z,15.91
2022-10-31T16:22:42.074Z,15.76
2022-10-31T16:25:17.217Z,15.61
2022-10-31T16:27:54.800Z,15.46
2022-10-31T16:30:44.004Z,15.33
2022-10-31T16:33:29.288Z,15.19
2022-10-31T16:36:29.920Z,15.09
2022-10-31T16:38:55.650Z,14.96
2022-10-31T16:41:28.951Z,14.86
2022-10-31T16:44:02.817Z,14.79
2022-10-31T16:46:34.959Z,14.71
2022-10-31T16:49:07.156Z,14.63
2022-10-31T16:51:39.633Z,14.56
2022-10-31T16:54:12.101Z,14.51
2022-10-31T16:56:45.618Z,14.47
2022-10-31T16:59:17.762Z,14.42
2022-10-31T17:01:52.172Z,14.38
2022-10-31T17:04:25.079Z,14.35
2022-10-31T17:06:57.272Z,14.34
2022-10-31T17:09:29.507Z,14.30
2022-10-31T17:12:01.826Z,14.25
2022-10-31T17:14:34.746Z,14.17
2022-10-31T17:17:06.859Z,14.06
2022-10-31T17:19:38.998Z,13.92
2022-10-31T17:22:13.284Z,13.82
2022-10-31T17:24:45.438Z,13.75
2022-10-31T17:27:17.655Z,13.72
2022-10-31T17:29:49.861Z,13.69
2022-10-31T17:32:22.060Z,13.63
2022-10-31T17:34:54.498Z,13.61
2022-10-31T17:37:26.674Z,13.58
2022-10-31T17:39:58.737Z,13.55
2022-10-31T17:42:31.482Z,13.46
2022-10-31T17:45:03.751Z,13.39
2022-10-31T17:47:36.653Z,13.35
2022-10-31T17:50:12.030Z,13.26
2022-10-31T17:52:44.167Z,13.17
2022-10-31T17:55:17.224Z,13.12
2022-10-31T17:57:49.430Z,13.08
2022-10-31T18:00:24.154Z,13.00
2022-10-31T18:02:56.325Z,12.95
2022-10-31T18:05:28.578Z,12.90
2022-10-31T18:08:04.044Z,12.81
2022-10-31T18:10:39.458Z,12.69
2022-10-31T18:13:11.626Z,12.63
2022-10-31T18:15:43.764Z,12.56
2022-10-31T18:18:15.932Z,12.50
2022-10-31T18:20:48.541Z,12.43
2022-10-31T18:23:20.769Z,12.33
2022-10-31T18:25:53.162Z,12.31
2022-10-31T18:28:25.528Z,12.30
2022-10-31T18:30:59.297Z,12.27
2022-10-31T18:33:31.879Z,12.26
2022-10-31T18:36:10.175Z,12.26
2022-10-31T18:38:44.992Z,12.26
2022-10-31T18:41:17.811Z,12.24
2022-10-31T18:43:50.038Z,12.24
2022-10-31T18:46:22.491Z,12.25
2022-10-31T18:48:54.873Z,12.25
2022-10-31T18:51:27.367Z,12.24
2022-10-31T18:54:01.252Z,12.26
2022-10-31T18:56:33.570Z,12.22
2022-10-31T18:59:05.792Z,12.19
2022-10-31T19:01:36.449Z,12.15
2022-10-31T19:04:09.129Z,12.10
2022-10-31T19:06:41.353Z,12.06
2022-10-31T19:09:11.825Z,12.01
2022-10-31T19:11:44.091Z,11.95
2022-10-31T19:14:16.979Z,11.93
2022-10-31T19:16:52.356Z,11.92
2022-10-31T19:19:25.380Z,11.90
2022-10-31T19:21:58.044Z,11.80
2022-10-31T19:24:30.317Z,11.74
2022-10-31T19:27:03.980Z,11.72
2022-10-31T19:29:36.079Z,11.67
2022-10-31T19:32:08.149Z,11.63
2022-10-31T19:34:42.643Z,11.58
2022-10-31T19:37:15.031Z,11.52
2022-10-31T19:39:47.271Z,11.45
2022-10-31T19:42:19.443Z,11.36
2022-10-31T19:44:49.923Z,11.29
2022-10-31T19:47:22.170Z,11.19
2022-10-31T19:49:52.727Z,11.14
2022-10-31T19:52:24.918Z,11.10
2022-10-31T19:54:57.042Z,11.08
2022-10-31T19:58:00.731Z,11.08
2022-10-31T20:00:20.014Z,11.08
2022-10-31T20:02:52.289Z,11.10
2022-10-31T20:05:24.600Z,11.10
2022-10-31T20:07:56.799Z,11.09
2022-10-31T20:10:28.890Z,11.08
2022-10-31T20:13:01.375Z,11.07
2022-10-31T20:15:34.902Z,11.03
2022-10-31T20:18:07.497Z,11.00
2022-10-31T20:20:39.812Z,10.98
2022-10-31T20:23:10.323Z,10.90
2022-10-31T20:25:49.786Z,10.80
2022-10-31T20:28:22.100Z,10.79
2022-10-31T20:30:54.447Z,10.79
2022-10-31T20:33:26.916Z,10.78
2022-10-31T20:35:59.315Z,10.72
2022-10-31T20:38:32.137Z,10.61
2022-10-31T20:41:05.641Z,10.53
2022-10-31T20:43:38.900Z,10.49
2022-10-31T20:46:14.418Z,10.51
2022-10-31T20:48:47.574Z,10.52
2022-10-31T20:51:22.272Z,10.49
2022-10-31T20:53:57.214Z,10.46
2022-10-31T20:56:30.290Z,10.43
2022-10-31T20:59:02.957Z,10.41
2022-10-31T21:01:36.689Z,10.37
2022-10-31T21:04:12.024Z,10.28
2022-10-31T21:06:49.230Z,10.24
2022-10-31T21:09:22.019Z,10.22
2022-10-31T21:11:54.406Z,10.22
2022-10-31T21:14:26.688Z,10.21
2022-10-31T21:16:58.919Z,10.18
2022-10-31T21:19:31.235Z,10.17
2022-10-31T21:22:03.282Z,10.18
2022-10-31T21:24:35.565Z,10.17
2022-10-31T21:27:11.538Z,10.17
2022-10-31T21:29:44.972Z,10.16
2022-10-31T21:32:17.220Z,10.16
2022-10-31T21:34:50.111Z,10.14
2022-10-31T21:37:22.093Z,10.14
2022-10-31T21:39:54.337Z,10.14
2022-10-31T21:42:26.633Z,10.13
2022-10-31T21:45:00.260Z,10.12
2022-10-31T21:47:32.786Z,10.12
2022-10-31T21:50:04.967Z,10.13
2022-10-31T21:52:35.466Z,10.13
2022-10-31T21:55:08.624Z,10.06
2022-10-31T21:57:41.136Z,10.02
2022-10-31T22:00:15.090Z,9.98
2022-10-31T22:02:47.193Z,9.92
2022-10-31T22:05:19.376Z,9.85
2022-10-31T22:07:49.864Z,9.81
2022-10-31T22:10:22.067Z,9.76
2022-10-31T22:12:52.653Z,9.66
2022-10-31T22:15:24.768Z,9.62
2022-10-31T22:17:56.758Z,9.60
2022-10-31T22:20:29.370Z,9.56
2022-10-31T22:23:01.432Z,9.54
2022-10-31T22:25:31.980Z,9.55
2022-10-31T22:28:06.998Z,9.52
2022-10-31T22:30:40.031Z,9.53
2022-10-31T22:33:12.334Z,9.54
2022-10-31T22:35:42.936Z,9.52
2022-10-31T22:38:14.937Z,9.50
2022-10-31T22:40:45.535Z,9.41
2022-10-31T22:43:17.619Z,9.31
2022-10-31T22:45:56.025Z,9.23
2022-10-31T22:48:28.215Z,9.11
2022-10-31T22:51:06.572Z,9.09
2022-10-31T22:53:40.278Z,9.10
2022-10-31T22:56:15.078Z,9.13
2022-10-31T22:58:47.553Z,9.11
2022-10-31T23:01:21.790Z,9.04
2022-10-31T23:03:54.812Z,9.05
2022-10-31T23:06:28.793Z,9.08
2022-10-31T23:09:02.029Z,9.14
2022-10-31T23:11:35.745Z,9.18
2022-10-31T23:14:13.774Z,9.23
2022-10-31T23:16:48.900Z,9.24
2022-10-31T23:19:23.665Z,9.24
2022-10-31T23:21:59.977Z,9.23
2022-10-31T23:24:36.782Z,9.21
2022-10-31T23:27:13.179Z,9.21
2022-10-31T23:29:47.450Z,9.22
2022-10-31T23:32:25.127Z,9.23
2022-10-31T23:34:59.132Z,9.27
2022-10-31T23:37:33.495Z,9.29
2022-10-31T23:40:08.689Z,9.32
2022-10-31T23:42:40.840Z,9.33
2022-10-31T23:45:13.394Z,9.33
2022-10-31T23:47:45.581Z,9.31
2022-10-31T23:50:18.225Z,9.29
2022-10-31T23:52:50.343Z,9.27
2022-10-31T23:55:20.889Z,9.22
2022-10-31T23:57:53.155Z,9.18
